Time;durP1;ratioP1;P1;durP2;ratioP2;P2;SDS_P1;SDS_P2;PMS_P1;PMS_P2;Temp;Humidity;BMP_temperature;BMP_pressure;BME280_temperature;BME280_humidity;BME280_pressure;Samples;Min_cycle;Max_cycle;Signal;HPM_P1;HPM_P2
2022/02/25 00:01:23;;;;;;;2.50;1.20;;;3.10;99.90;;;;;;5086024;28;21035;-45
2022/02/25 00:03:50;;;;;;;5.57;1.40;;;3.10;99.90;;;;;;5101869;28;20204;-44
2022/02/25 00:06:19;;;;;;;6.47;1.60;;;3.10;99.90;;;;;;5100789;28;20223;-44
2022/02/25 00:08:46;;;;;;;4.60;1.13;;;3.20;99.90;;;;;;5104727;28;20193;-44
2022/02/25 00:11:13;;;;;;;6.67;0.97;;;3.10;99.90;;;;;;5101792;28;20611;-45
2022/02/25 00:13:40;;;;;;;10.53;1.60;;;3.10;99.90;;;;;;5104375;28;20300;-46
2022/02/25 00:16:07;;;;;;;4.00;1.37;;;3.20;99.90;;;;;;5096284;28;20266;-43
2022/02/25 00:18:58;;;;;;;9.10;1.60;;;3.20;99.90;;;;;;5104395;28;20234;-44
2022/02/25 00:21:25;;;;;;;4.07;1.90;;;3.20;99.90;;;;;;5100625;28;20243;-45
2022/02/25 00:23:51;;;;;;;6.70;1.73;;;3.20;99.90;;;;;;5104482;28;20197;-45
2022/02/25 00:26:37;;;;;;;3.90;1.07;;;3.30;99.90;;;;;;5098567;28;20420;-46
2022/02/25 00:29:04;;;;;;;7.30;2.00;;;3.30;99.90;;;;;;5103142;28;20662;-45
2022/02/25 00:31:31;;;;;;;6.27;1.10;;;3.30;99.90;;;;;;5100534;28;20442;-45
2022/02/25 00:33:59;;;;;;;3.47;2.00;;;3.30;99.90;;;;;;5089649;28;20548;-49
2022/02/25 00:36:26;;;;;;;9.40;2.43;;;3.30;99.90;;;;;;5100511;28;20182;-46
2022/02/25 00:38:53;;;;;;;14.10;2.23;;;3.30;99.90;;;;;;5104371;28;20220;-44
2022/02/25 00:41:20;;;;;;;10.57;1.50;;;3.30;99.90;;;;;;5100066;28;20217;-47
2022/02/25 00:43:47;;;;;;;7.23;1.83;;;3.30;99.90;;;;;;5104276;28;20193;-45
2022/02/25 00:46:13;;;;;;;6.30;1.40;;;3.30;99.90;;;;;;5100742;28;20217;-47
2022/02/25 00:48:40;;;;;;;6.97;1.50;;;3.30;99.90;;;;;;5089014;28;20202;-44
2022/02/25 00:51:09;;;;;;;9.30;1.97;;;3.30;99.90;;;;;;5101887;28;20240;-45
2022/02/25 00:53:35;;;;;;;3.67;1.17;;;3.30;99.90;;;;;;5102774;28;20463;-44
2022/02/25 00:56:02;;;;;;;7.23;1.37;;;3.30;99.90;;;;;;5099977;28;20193;-48
2022/02/25 00:58:29;;;;;;;9.53;1.40;;;3.30;99.90;;;;;;5100498;28;20208;-43
2022/02/25 01:00:57;;;;;;;5.73;1.50;;;3.30;99.90;;;;;;5103956;28;20572;-46
2022/02/25 01:03:23;;;;;;;7.07;1.63;;;3.30;99.90;;;;;;5099529;28;20901;-45
2022/02/25 01:05:50;;;;;;;6.10;1.70;;;3.30;99.90;;;;;;5088887;28;20213;-43
2022/02/25 01:08:18;;;;;;;6.27;1.67;;;3.30;99.90;;;;;;5099790;28;20208;-45
2022/02/25 01:10:45;;;;;;;9.70;2.20;;;3.30;99.90;;;;;;5103847;28;20231;-43
2022/02/25 01:13:12;;;;;;;4.07;1.40;;;3.30;99.90;;;;;;5100778;28;20198;-43
2022/02/25 01:15:38;;;;;;;5.37;1.53;;;3.20;99.90;;;;;;5102631;28;20201;-44
2022/02/25 01:18:06;;;;;;;11.23;2.00;;;3.20;99.90;;;;;;5102144;28;20201;-45
2022/02/25 01:20:33;;;;;;;6.20;1.70;;;3.30;99.90;;;;;;5087142;28;20814;-44
2022/02/25 01:23:00;;;;;;;7.33;1.50;;;3.30;99.90;;;;;;5102863;28;20212;-45
2022/02/25 01:25:28;;;;;;;7.07;1.40;;;3.30;99.90;;;;;;5094589;28;20410;-46
2022/02/25 01:27:54;;;;;;;1.93;1.17;;;3.30;99.90;;;;;;5102386;28;20768;-43
2022/02/25 01:30:21;;;;;;;5.50;1.80;;;3.40;99.90;;;;;;5099091;28;20225;-45
2022/02/25 01:32:48;;;;;;;6.53;1.80;;;3.30;99.90;;;;;;5103246;28;20203;-45
2022/02/25 01:35:15;;;;;;;10.83;1.80;;;3.30;99.90;;;;;;5087088;28;20201;-45
2022/02/25 01:37:44;;;;;;;6.67;1.50;;;3.40;99.90;;;;;;5101597;28;20571;-43
2022/02/25 01:40:11;;;;;;;4.97;1.00;;;3.30;99.90;;;;;;5100819;28;20291;-45
2022/02/25 01:42:47;;;;;;;8.73;1.87;;;3.30;99.90;;;;;;5100757;28;20685;-43
2022/02/25 01:45:14;;;;;;;3.10;1.43;;;3.30;99.90;;;;;;5100376;28;20193;-44
2022/02/25 01:47:41;;;;;;;10.10;2.03;;;3.30;99.90;;;;;;5102657;28;20221;-43
2022/02/25 01:50:09;;;;;;;9.13;2.20;;;3.30;99.90;;;;;;5101111;28;20228;-46
2022/02/25 01:52:36;;;;;;;7.40;1.40;;;3.30;99.90;;;;;;5085639;28;20814;-44
2022/02/25 01:55:04;;;;;;;9.57;1.53;;;3.30;99.90;;;;;;5101091;28;20194;-47
2022/02/25 01:57:31;;;;;;;5.77;1.47;;;3.30;99.90;;;;;;5100835;28;20446;-43
2022/02/25 02:00:00;;;;;;;3.73;1.20;;;3.40;99.90;;;;;;5102639;28;20213;-45
2022/02/25 02:02:27;;;;;;;5.63;1.20;;;3.30;99.90;;;;;;5099779;28;20932;-43
2022/02/25 02:04:56;;;;;;;6.03;1.30;;;3.30;99.90;;;;;;5103137;28;20238;-43
2022/02/25 02:07:23;;;;;;;7.37;1.63;;;3.30;99.90;;;;;;5084118;28;20212;-46
2022/02/25 02:09:51;;;;;;;4.13;1.23;;;3.30;99.90;;;;;;5102688;28;20228;-45
2022/02/25 02:12:19;;;;;;;5.30;1.90;;;3.30;99.90;;;;;;5098985;28;20221;-43
2022/02/25 02:14:48;;;;;;;6.53;1.63;;;3.30;99.90;;;;;;5103391;28;20201;-43
2022/02/25 02:17:16;;;;;;;8.23;1.30;;;3.30;99.90;;;;;;5103266;28;20246;-43
2022/02/25 02:19:42;;;;;;;4.23;1.27;;;3.30;99.90;;;;;;5107052;28;20221;-44
2022/02/25 02:22:10;;;;;;;12.20;1.83;;;3.20;99.90;;;;;;5089937;28;20205;-44
2022/02/25 02:24:38;;;;;;;6.13;1.30;;;3.20;99.90;;;;;;5105431;28;20693;-44
2022/02/25 02:27:05;;;;;;;10.07;2.30;;;3.30;99.90;;;;;;5101282;28;20249;-44
2022/02/25 02:29:32;;;;;;;4.73;1.53;;;3.30;99.90;;;;;;5104471;28;20212;-42
2022/02/25 02:31:59;;;;;;;5.53;1.70;;;3.30;99.90;;;;;;5106577;28;20204;-43
2022/02/25 02:34:26;;;;;;;6.20;1.20;;;3.30;99.90;;;;;;5102985;28;20193;-42
2022/02/25 02:36:52;;;;;;;1.30;0.90;;;3.40;99.90;;;;;;5106106;27;20197;-42
2022/02/25 02:39:19;;;;;;;7.30;1.60;;;3.30;99.90;;;;;;5087303;27;20202;-43
2022/02/25 02:41:47;;;;;;;7.67;2.03;;;3.40;99.90;;;;;;5106410;28;20189;-42
2022/02/25 02:44:14;;;;;;;1.77;0.70;;;3.40;99.90;;;;;;5103164;28;20201;-43
2022/02/25 02:46:41;;;;;;;7.90;1.77;;;3.40;99.90;;;;;;5105903;28;20604;-43
2022/02/25 02:49:08;;;;;;;7.67;1.60;;;3.30;99.90;;;;;;5104302;28;20205;-43
2022/02/25 02:51:35;;;;;;;4.80;1.10;;;3.40;99.90;;;;;;5104898;28;20225;-43
2022/02/25 02:54:02;;;;;;;14.50;1.67;;;3.40;99.90;;;;;;5090634;28;20209;-43
2022/02/25 02:56:29;;;;;;;6.57;1.77;;;3.40;99.90;;;;;;5102603;28;20949;-42
2022/02/25 02:58:57;;;;;;;10.17;1.67;;;3.40;99.90;;;;;;5105685;28;20201;-43
2022/02/25 03:01:26;;;;;;;7.40;1.60;;;3.50;99.90;;;;;;5102194;28;20297;-43
2022/02/25 03:03:53;;;;;;;10.73;1.93;;;3.50;99.90;;;;;;5105960;28;20198;-44
2022/02/25 03:06:19;;;;;;;8.30;1.33;;;3.50;99.90;;;;;;5101443;28;20201;-46
2022/02/25 03:08:46;;;;;;;12.40;1.70;;;3.50;99.90;;;;;;5091400;28;20210;-43
2022/02/25 03:11:13;;;;;;;9.90;1.90;;;3.50;99.90;;;;;;5102759;28;20228;-43
2022/02/25 03:13:40;;;;;;;5.53;1.23;;;3.50;99.90;;;;;;5105423;28;20738;-43
2022/02/25 03:16:08;;;;;;;3.40;1.60;;;3.50;99.90;;;;;;5103717;28;20208;-43
2022/02/25 03:18:35;;;;;;;8.23;1.27;;;3.50;99.90;;;;;;5104086;28;20201;-42
2022/02/25 03:21:01;;;;;;;4.20;1.37;;;3.50;99.90;;;;;;5105125;28;20220;-44
2022/02/25 03:23:28;;;;;;;3.60;1.30;;;3.50;99.90;;;;;;5102635;28;20693;-43
2022/02/25 03:25:55;;;;;;;4.67;1.47;;;3.50;99.90;;;;;;5089355;28;20218;-42
2022/02/25 03:28:21;;;;;;;4.90;1.40;;;3.40;99.90;;;;;;5100620;28;20213;-43
2022/02/25 03:30:48;;;;;;;5.33;1.40;;;3.40;99.90;;;;;;5105836;28;20232;-43
2022/02/25 03:33:16;;;;;;;3.17;1.37;;;3.40;99.90;;;;;;5102168;28;20198;-43
2022/02/25 03:35:43;;;;;;;7.53;2.13;;;3.40;99.90;;;;;;5105508;28;20198;-43
2022/02/25 03:38:09;;;;;;;4.13;1.50;;;3.40;99.90;;;;;;5102881;28;20650;-43
2022/02/25 03:40:38;;;;;;;11.27;1.97;;;3.40;99.90;;;;;;5089991;28;20920;-44
2022/02/25 03:43:04;;;;;;;12.33;2.30;;;3.40;99.90;;;;;;5103759;28;20666;-44
2022/02/25 03:45:32;;;;;;;7.03;1.47;;;3.40;99.90;;;;;;5102876;28;20409;-45
2022/02/25 03:47:58;;;;;;;9.00;1.80;;;3.40;99.90;;;;;;5105031;28;20731;-44
2022/02/25 03:50:27;;;;;;;6.37;1.47;;;3.50;99.90;;;;;;5101371;28;20206;-44
2022/02/25 03:52:53;;;;;;;10.40;2.67;;;3.50;99.90;;;;;;5105168;28;20193;-48
2022/02/25 03:55:20;;;;;;;3.03;1.47;;;3.50;99.90;;;;;;5083865;28;20325;-43
2022/02/25 03:57:47;;;;;;;9.03;1.67;;;3.50;99.90;;;;;;5104452;28;20197;-45
2022/02/25 04:00:15;;;;;;;5.40;1.93;;;3.50;99.90;;;;;;5101632;28;20217;-43
2022/02/25 04:02:41;;;;;;;6.93;1.57;;;3.50;99.90;;;;;;5105014;28;20279;-43
2022/02/25 04:05:11;;;;;;;10.00;1.67;;;3.50;99.90;;;;;;5103161;28;20559;-42
2022/02/25 04:07:41;;;;;;;4.97;1.20;;;3.60;99.90;;;;;;5103372;27;20462;-43
2022/02/25 04:10:08;;;;;;;7.13;2.33;;;3.60;99.90;;;;;;5102813;28;20708;-43
2022/02/25 04:12:35;;;;;;;13.87;2.73;;;3.60;99.90;;;;;;5088363;28;20740;-42
2022/02/25 04:15:04;;;;;;;10.67;1.87;;;3.60;99.90;;;;;;5103834;28;20219;-44
2022/02/25 04:17:31;;;;;;;8.40;1.77;;;3.60;99.90;;;;;;5101856;28;20196;-45
2022/02/25 04:19:58;;;;;;;5.13;1.80;;;3.60;99.90;;;;;;5104696;28;20225;-43
2022/02/25 04:22:24;;;;;;;9.37;1.80;;;3.50;99.90;;;;;;5100647;28;20197;-43
2022/02/25 04:24:52;;;;;;;3.33;1.97;;;3.50;99.90;;;;;;5103212;28;20202;-44
2022/02/25 04:27:19;;;;;;;6.87;1.30;;;3.50;99.90;;;;;;5080154;28;20213;-43
2022/02/25 04:29:46;;;;;;;7.57;2.30;;;3.50;99.90;;;;;;5104256;28;20549;-44
2022/02/25 04:32:13;;;;;;;4.80;1.33;;;3.40;99.90;;;;;;5101244;28;20207;-43
2022/02/25 04:34:40;;;;;;;3.57;1.50;;;3.50;99.90;;;;;;5104357;28;20284;-45
2022/02/25 04:37:07;;;;;;;6.87;1.83;;;3.50;99.90;;;;;;5102052;28;20205;-43
2022/02/25 04:39:34;;;;;;;14.47;2.60;;;3.50;99.90;;;;;;5101210;28;20225;-42
2022/02/25 04:42:02;;;;;;;7.73;1.80;;;3.50;99.90;;;;;;5101156;28;20271;-44
2022/02/25 04:44:28;;;;;;;9.37;2.40;;;3.50;99.90;;;;;;5088505;28;20208;-42
2022/02/25 04:46:55;;;;;;;7.90;2.20;;;3.50;99.90;;;;;;5103554;28;20213;-41
2022/02/25 04:49:22;;;;;;;9.77;2.00;;;3.50;99.90;;;;;;5099863;28;20204;-42
2022/02/25 04:51:48;;;;;;;11.80;1.83;;;3.50;99.90;;;;;;5104074;28;20208;-43
2022/02/25 04:54:15;;;;;;;3.93;1.60;;;3.50;99.90;;;;;;5100489;28;20204;-45
2022/02/25 04:56:42;;;;;;;8.23;2.00;;;3.50;99.90;;;;;;5094423;28;20750;-45
2022/02/25 04:59:10;;;;;;;13.10;3.17;;;3.50;99.90;;;;;;5087341;28;20209;-45
2022/02/25 05:01:38;;;;;;;5.13;1.67;;;3.50;99.90;;;;;;5102368;28;20329;-43
2022/02/25 05:04:05;;;;;;;12.37;3.30;;;3.50;99.90;;;;;;5102627;28;20203;-45
2022/02/25 05:06:34;;;;;;;5.53;1.73;;;3.50;99.90;;;;;;5101483;28;20780;-44
2022/02/25 05:09:01;;;;;;;8.40;2.33;;;3.50;99.90;;;;;;5103170;28;20232;-44
2022/02/25 05:11:28;;;;;;;6.20;2.37;;;3.50;99.90;;;;;;5100452;28;20420;-43
2022/02/25 05:13:55;;;;;;;22.30;3.77;;;3.50;99.90;;;;;;5089479;28;20197;-44
2022/02/25 05:21:52;;;;;;;4.80;2.40;;;3.40;99.90;;;;;;5103799;28;20204;-43
2022/02/25 05:24:19;;;;;;;10.87;1.83;;;3.40;99.90;;;;;;5099519;28;20185;-44
2022/02/25 05:26:46;;;;;;;12.53;2.40;;;3.40;99.90;;;;;;5098369;28;20205;-44
2022/02/25 05:29:12;;;;;;;9.53;2.00;;;3.40;99.90;;;;;;5089560;28;20197;-43
2022/02/25 05:31:42;;;;;;;17.87;3.30;;;3.40;99.90;;;;;;5100472;28;20235;-44
2022/02/25 05:34:08;;;;;;;8.53;1.80;;;3.40;99.90;;;;;;5101148;28;20201;-46
2022/02/25 05:36:35;;;;;;;3.67;1.63;;;3.40;99.90;;;;;;5101573;28;20196;-42
2022/02/25 05:39:04;;;;;;;11.17;1.77;;;3.50;99.90;;;;;;5102072;28;20209;-44
2022/02/25 05:41:31;;;;;;;10.03;1.60;;;3.50;99.90;;;;;;5100829;28;20924;-43
2022/02/25 05:43:58;;;;;;;5.50;1.50;;;3.50;99.90;;;;;;5103147;28;20201;-46
2022/02/25 05:46:25;;;;;;;8.10;1.33;;;3.50;99.90;;;;;;5085972;28;20199;-48
2022/02/25 05:48:53;;;;;;;5.40;1.57;;;3.60;99.90;;;;;;5103038;28;20217;-43
2022/02/25 05:51:19;;;;;;;4.47;1.40;;;3.60;99.90;;;;;;5098722;28;20213;-45
2022/02/25 05:53:46;;;;;;;9.63;1.83;;;3.60;99.90;;;;;;5103299;28;20206;-45
2022/02/25 05:56:13;;;;;;;6.60;2.53;;;3.70;99.90;;;;;;5099566;28;20197;-46
2022/02/25 05:58:40;;;;;;;5.83;1.57;;;3.70;99.90;;;;;;5101992;28;20200;-44
2022/02/25 06:01:06;;;;;;;8.60;3.10;;;3.70;99.90;;;;;;5086711;28;20612;-48
2022/02/25 06:03:33;;;;;;;8.83;2.07;;;3.70;99.90;;;;;;5101052;28;20196;-46
2022/02/25 06:06:01;;;;;;;5.10;2.20;;;3.80;99.90;;;;;;5102429;28;20649;-43
2022/02/25 06:08:27;;;;;;;5.07;1.63;;;3.80;99.90;;;;;;5099746;28;20429;-43
2022/02/25 06:10:54;;;;;;;5.63;1.80;;;3.80;99.90;;;;;;5103170;28;20221;-45
2022/02/25 06:13:21;;;;;;;6.40;1.60;;;3.90;99.90;;;;;;5098978;28;20240;-44
2022/02/25 06:15:48;;;;;;;8.33;1.83;;;3.90;99.90;;;;;;5102741;28;20206;-43
2022/02/25 06:18:16;;;;;;;4.03;1.43;;;3.90;99.90;;;;;;5081999;28;20614;-42
2022/02/25 06:20:44;;;;;;;7.43;2.33;;;3.90;99.90;;;;;;5102868;28;20308;-42
2022/02/25 06:23:12;;;;;;;10.07;2.40;;;3.90;99.90;;;;;;5100292;28;20201;-45
2022/02/25 06:25:38;;;;;;;7.97;1.80;;;3.90;99.90;;;;;;5098980;28;20201;-44
2022/02/25 06:28:06;;;;;;;7.93;2.33;;;3.90;99.90;;;;;;5100230;28;20541;-43
2022/02/25 06:30:33;;;;;;;12.83;2.77;;;3.90;99.90;;;;;;5100706;28;20206;-44
2022/02/25 06:33:00;;;;;;;12.40;2.87;;;3.90;99.90;;;;;;5088086;28;20205;-45
2022/02/25 06:35:29;;;;;;;6.87;1.43;;;3.80;99.90;;;;;;5098914;28;20193;-44
2022/02/25 06:37:57;;;;;;;5.23;2.13;;;3.80;99.90;;;;;;5102541;28;20288;-43
2022/02/25 06:40:26;;;;;;;14.00;3.43;;;3.80;99.90;;;;;;5098606;28;20957;-43
2022/02/25 06:42:53;;;;;;;15.47;4.07;;;3.80;99.90;;;;;;5102735;28;20197;-44
2022/02/25 06:45:21;;;;;;;13.13;3.20;;;3.80;99.90;;;;;;5098433;28;20189;-46
2022/02/25 06:47:48;;;;;;;8.87;2.37;;;3.80;99.90;;;;;;5088148;28;20757;-44
2022/02/25 06:50:17;;;;;;;13.60;3.37;;;3.80;99.90;;;;;;5098702;28;20724;-44
2022/02/25 06:52:44;;;;;;;9.93;2.57;;;3.80;99.90;;;;;;5102639;28;20289;-43
2022/02/25 06:55:13;;;;;;;9.27;2.00;;;3.80;99.90;;;;;;5095714;28;20252;-42
2022/02/25 06:57:41;;;;;;;6.23;1.70;;;3.90;99.90;;;;;;5100240;28;20250;-45
2022/02/25 07:00:11;;;;;;;9.80;2.30;;;3.90;99.90;;;;;;5099950;28;20256;-47
2022/02/25 07:02:37;;;;;;;11.10;2.73;;;3.90;99.90;;;;;;5102817;28;20827;-43
2022/02/25 07:05:05;;;;;;;14.00;3.80;;;4.00;99.90;;;;;;5089814;28;20689;-46
2022/02/25 07:07:55;;;;;;;13.47;3.33;;;4.00;99.90;;;;;;5104445;28;20239;-44
2022/02/25 07:10:22;;;;;;;22.93;5.80;;;4.00;99.90;;;;;;5101715;28;20213;-43
2022/02/25 07:12:50;;;;;;;15.60;2.93;;;4.10;99.90;;;;;;5105827;28;20614;-46
2022/02/25 07:15:18;;;;;;;7.57;2.00;;;4.10;99.90;;;;;;5101855;28;20201;-43
2022/02/25 07:17:45;;;;;;;9.87;2.30;;;4.10;99.90;;;;;;5105516;28;20545;-45
2022/02/25 07:20:12;;;;;;;7.57;2.20;;;4.10;99.90;;;;;;5087992;28;20642;-44
2022/02/25 07:22:41;;;;;;;6.17;2.13;;;4.10;99.90;;;;;;5105324;28;20697;-45
2022/02/25 07:25:08;;;;;;;5.83;2.30;;;4.10;99.90;;;;;;5103664;28;20208;-44
2022/02/25 07:27:34;;;;;;;6.03;1.83;;;4.10;99.90;;;;;;5103088;28;20904;-46
2022/02/25 07:30:03;;;;;;;11.80;3.47;;;4.20;99.90;;;;;;5104563;28;20221;-44
2022/02/25 07:32:30;;;;;;;3.57;1.60;;;4.20;99.90;;;;;;5102786;28;20200;-44
2022/02/25 07:34:57;;;;;;;16.20;3.20;;;4.20;99.90;;;;;;5090640;28;20221;-44
2022/02/25 07:37:24;;;;;;;10.73;3.47;;;4.20;99.90;;;;;;5101171;28;20204;-43
2022/02/25 07:39:51;;;;;;;4.63;2.20;;;4.20;99.90;;;;;;5105095;28;20213;-46
2022/02/25 07:42:18;;;;;;;17.10;3.07;;;4.30;99.90;;;;;;5101180;28;20193;-47
2022/02/25 07:44:45;;;;;;;6.40;1.80;;;4.30;99.90;;;;;;5105247;28;20379;-44
2022/02/25 07:47:14;;;;;;;9.50;2.23;;;4.40;99.90;;;;;;5101943;28;20205;-45
2022/02/25 07:49:41;;;;;;;8.67;2.27;;;4.50;99.90;;;;;;5090154;28;20221;-43
2022/02/25 07:52:07;;;;;;;10.63;3.93;;;4.50;99.90;;;;;;5102984;28;20198;-45
2022/02/25 07:54:34;;;;;;;4.73;1.40;;;4.60;99.90;;;;;;5103481;28;20633;-43
2022/02/25 07:57:01;;;;;;;31.33;5.37;;;4.80;99.90;;;;;;5100144;28;20200;-44
2022/02/25 07:59:28;;;;;;;11.73;2.33;;;4.80;99.90;;;;;;5101802;28;20197;-44
2022/02/25 08:01:55;;;;;;;4.47;2.00;;;4.90;99.90;;;;;;5104628;28;20200;-42
2022/02/25 08:04:24;;;;;;;8.43;2.67;;;4.90;99.90;;;;;;5086106;27;20213;-43
2022/02/25 08:06:52;;;;;;;12.17;3.20;;;4.90;99.90;;;;;;5104217;28;20246;-43
2022/02/25 08:09:21;;;;;;;10.43;1.73;;;4.80;99.90;;;;;;5100551;28;20273;-43
2022/02/25 08:11:48;;;;;;;11.53;3.03;;;4.80;99.90;;;;;;5105064;28;20717;-45
2022/02/25 08:14:15;;;;;;;9.17;1.50;;;4.70;99.90;;;;;;5100713;28;20199;-47
2022/02/25 08:16:42;;;;;;;10.27;2.57;;;4.70;99.90;;;;;;5104536;28;20193;-44
2022/02/25 08:19:09;;;;;;;8.83;2.63;;;4.60;99.90;;;;;;5094482;28;20213;-44
2022/02/25 08:21:38;;;;;;;6.50;3.50;;;4.50;99.90;;;;;;5098407;28;20902;-45
2022/02/25 08:24:05;;;;;;;4.93;1.73;;;4.50;99.90;;;;;;5099127;28;20635;-44
2022/02/25 08:26:32;;;;;;;4.40;1.90;;;4.40;99.90;;;;;;5095744;28;20185;-43
2022/02/25 08:28:58;;;;;;;6.67;3.00;;;4.30;99.90;;;;;;5103761;28;20308;-42
2022/02/25 08:31:25;;;;;;;6.87;2.67;;;4.30;99.90;;;;;;5100501;28;20213;-45
2022/02/25 08:33:52;;;;;;;9.47;3.03;;;4.20;99.90;;;;;;5104445;28;20205;-43
2022/02/25 08:36:19;;;;;;;7.50;3.30;;;4.20;99.90;;;;;;5085242;28;20207;-45
2022/02/25 08:38:48;;;;;;;6.40;2.93;;;4.20;99.90;;;;;;5104358;28;20279;-44
2022/02/25 08:41:15;;;;;;;7.97;3.17;;;4.10;99.90;;;;;;5100827;28;20301;-45
2022/02/25 08:43:42;;;;;;;11.73;3.30;;;4.10;99.90;;;;;;5104030;28;20201;-44
2022/02/25 08:46:09;;;;;;;8.40;2.10;;;4.10;99.90;;;;;;5101620;28;20224;-44
2022/02/25 08:48:36;;;;;;;10.23;3.10;;;4.10;99.90;;;;;;5102824;28;20209;-44
2022/02/25 08:51:03;;;;;;;16.20;4.00;;;4.10;99.90;;;;;;5087989;28;20221;-44
2022/02/25 08:53:30;;;;;;;8.70;2.93;;;4.00;99.90;;;;;;5101028;28;20185;-45
2022/02/25 08:55:58;;;;;;;20.50;4.97;;;4.00;99.90;;;;;;5101934;28;20228;-43
2022/02/25 08:58:25;;;;;;;9.60;3.63;;;4.00;99.90;;;;;;5099839;28;20782;-44
2022/02/25 09:00:52;;;;;;;17.20;5.80;;;4.00;99.90;;;;;;5103921;28;20712;-42
2022/02/25 09:03:19;;;;;;;15.43;4.60;;;4.00;99.90;;;;;;5099495;28;20221;-43
2022/02/25 09:05:46;;;;;;;7.97;3.33;;;4.00;99.90;;;;;;5089089;28;20205;-45
2022/02/25 09:08:13;;;;;;;5.80;2.40;;;4.00;99.90;;;;;;5100279;28;20201;-42
2022/02/25 09:10:41;;;;;;;11.73;4.17;;;4.00;99.90;;;;;;5102842;28;20221;-42
2022/02/25 09:13:10;;;;;;;8.03;3.90;;;4.00;99.90;;;;;;5101619;28;20288;-44
2022/02/25 09:15:36;;;;;;;8.50;3.73;;;4.10;99.90;;;;;;5102086;28;20272;-42
2022/02/25 09:18:05;;;;;;;8.63;3.90;;;4.10;99.90;;;;;;5102478;28;20201;-46
2022/02/25 09:20:32;;;;;;;11.07;4.03;;;4.10;99.90;;;;;;5086509;28;20471;-47
2022/02/25 09:23:00;;;;;;;10.63;4.30;;;4.10;99.90;;;;;;5102835;28;20296;-45
2022/02/25 09:25:26;;;;;;;10.63;4.60;;;4.20;99.90;;;;;;5095440;28;20201;-44
2022/02/25 09:27:53;;;;;;;7.53;4.60;;;4.20;99.90;;;;;;5102770;28;20197;-46
2022/02/25 09:30:22;;;;;;;8.23;3.50;;;4.30;99.90;;;;;;5099024;28;20221;-45
2022/02/25 09:32:49;;;;;;;12.47;5.07;;;4.40;99.90;;;;;;5103442;28;20619;-48
2022/02/25 09:35:15;;;;;;;11.67;3.70;;;4.50;99.90;;;;;;5087129;28;20193;-45
2022/02/25 09:37:43;;;;;;;9.07;3.70;;;4.60;99.90;;;;;;5098748;28;20194;-42
2022/02/25 09:40:12;;;;;;;7.13;3.03;;;4.70;99.90;;;;;;5100886;28;20304;-43
2022/02/25 09:42:41;;;;;;;11.57;4.43;;;4.70;99.90;;;;;;5102646;28;20285;-46
2022/02/25 09:45:10;;;;;;;16.80;4.83;;;4.70;99.90;;;;;;5101190;28;20661;-45
2022/02/25 09:47:40;;;;;;;9.93;4.17;;;4.70;99.90;;;;;;5102032;28;20211;-43
2022/02/25 09:50:10;;;;;;;8.23;3.20;;;4.70;99.90;;;;;;5100924;28;20328;-45
2022/02/25 09:52:39;;;;;;;9.37;5.27;;;4.70;99.90;;;;;;5087108;28;20193;-45
2022/02/25 09:55:07;;;;;;;19.50;5.50;;;4.80;99.90;;;;;;5096963;28;20574;-43
2022/02/25 09:57:34;;;;;;;16.30;5.23;;;4.80;99.90;;;;;;5100615;28;20454;-43
2022/02/25 10:00:06;;;;;;;17.73;4.67;;;4.90;99.90;;;;;;5101939;28;20224;-46
2022/02/25 10:02:41;;;;;;;7.03;4.30;;;4.90;99.90;;;;;;5102149;28;20200;-43
2022/02/25 10:05:13;;;;;;;12.80;3.60;;;4.90;99.90;;;;;;5100681;28;20201;-45
2022/02/25 10:07:40;;;;;;;10.07;3.57;;;4.90;99.90;;;;;;5087591;28;20235;-43
2022/02/25 10:10:08;;;;;;;10.03;3.73;;;4.90;99.90;;;;;;5100925;28;20221;-44
2022/02/25 10:12:35;;;;;;;11.57;3.00;;;4.90;99.90;;;;;;5101369;28;20193;-44
2022/02/25 10:15:02;;;;;;;22.23;5.10;;;4.90;99.90;;;;;;5102108;28;20197;-46
2022/02/25 10:17:29;;;;;;;9.90;3.60;;;4.80;99.90;;;;;;5099358;28;20197;-45
2022/02/25 10:20:00;;;;;;;13.90;4.40;;;4.80;99.90;;;;;;5103109;28;20217;-46
2022/02/25 10:22:29;;;;;;;8.90;4.33;;;4.60;99.90;;;;;;5099472;28;20903;-46
2022/02/25 10:24:59;;;;;;;9.90;3.47;;;4.50;99.90;;;;;;5082187;28;20250;-47
2022/02/25 10:27:30;;;;;;;16.50;3.20;;;4.50;99.90;;;;;;5093750;28;20923;-43
2022/02/25 10:30:00;;;;;;;11.90;3.63;;;4.30;99.90;;;;;;5102615;28;20239;-45
2022/02/25 10:32:30;;;;;;;14.90;4.43;;;4.20;99.90;;;;;;5099593;28;20236;-46
2022/02/25 10:34:58;;;;;;;4.53;2.77;;;4.10;99.90;;;;;;5103041;28;20275;-45
2022/02/25 10:37:24;;;;;;;18.63;4.57;;;4.10;99.90;;;;;;5099836;28;20446;-42
2022/02/25 10:39:51;;;;;;;7.10;2.97;;;4.10;99.90;;;;;;5091967;28;20245;-43
2022/02/25 10:42:22;;;;;;;10.17;3.70;;;4.10;99.90;;;;;;5101990;28;20805;-44
2022/02/25 10:44:54;;;;;;;6.60;3.00;;;4.10;99.90;;;;;;5106404;28;20639;-46
2022/02/25 10:47:23;;;;;;;5.97;2.20;;;4.10;99.90;;;;;;5102130;28;20812;-43
2022/02/25 10:50:00;;;;;;;4.93;2.27;;;4.10;99.90;;;;;;5106373;28;20217;-45
2022/02/25 10:52:30;;;;;;;5.30;2.70;;;4.10;99.90;;;;;;5103143;28;20789;-46
2022/02/25 10:54:59;;;;;;;6.47;2.60;;;4.00;99.90;;;;;;5089854;28;20300;-46
2022/02/25 10:57:27;;;;;;;4.23;2.10;;;4.10;99.90;;;;;;5100068;28;20461;-47
2022/02/25 10:59:57;;;;;;;6.80;2.93;;;4.10;99.90;;;;;;5105983;28;20228;-45
2022/02/25 11:02:29;;;;;;;6.77;2.97;;;4.20;99.90;;;;;;5102350;28;20907;-42
2022/02/25 11:05:05;;;;;;;10.13;2.93;;;4.30;99.90;;;;;;5106445;28;20284;-46
2022/02/25 11:07:32;;;;;;;7.83;2.80;;;4.40;99.90;;;;;;5103498;28;20226;-48
2022/02/25 11:09:58;;;;;;;5.83;3.33;;;4.50;99.90;;;;;;5084433;28;20229;-42
2022/02/25 11:12:26;;;;;;;5.50;1.80;;;4.40;99.90;;;;;;5096620;27;20193;-46
2022/02/25 11:14:54;;;;;;;5.80;2.17;;;4.40;99.90;;;;;;5105945;28;20799;-43
2022/02/25 11:17:21;;;;;;;7.73;3.00;;;4.40;99.90;;;;;;5101534;28;20191;-44
2022/02/25 11:19:49;;;;;;;7.03;2.80;;;4.40;99.90;;;;;;5105855;28;20249;-47
2022/02/25 11:22:19;;;;;;;7.70;2.37;;;4.40;99.90;;;;;;5102288;28;20560;-46
2022/02/25 11:24:46;;;;;;;4.90;1.80;;;4.50;99.90;;;;;;5084545;28;20276;-45
2022/02/25 11:27:13;;;;;;;4.73;2.10;;;4.60;99.90;;;;;;5101953;28;20277;-43
2022/02/25 11:29:51;;;;;;;2.83;1.67;;;4.60;99.90;;;;;;5105302;28;20224;-44
2022/02/25 11:32:22;;;;;;;6.67;2.40;;;4.70;99.90;;;;;;5101251;28;20215;-42
2022/02/25 11:34:49;;;;;;;6.13;1.90;;;4.80;99.90;;;;;;5105761;28;20205;-46
2022/02/25 11:37:41;;;;;;;12.47;3.20;;;4.90;99.90;;;;;;5101476;28;20326;-44
2022/02/25 11:40:08;;;;;;;11.07;3.03;;;5.00;99.90;;;;;;5096005;28;20217;-43
2022/02/25 11:42:35;;;;;;;6.03;1.87;;;5.10;99.90;;;;;;5094879;28;20938;-46
2022/02/25 11:45:22;;;;;;;6.83;2.53;;;5.20;99.90;;;;;;5104250;28;20205;-43
2022/02/25 11:47:56;;;;;;;6.13;2.60;;;5.30;99.90;;;;;;5099344;28;20205;-45
2022/02/25 11:50:39;;;;;;;4.60;1.70;;;5.50;99.90;;;;;;5100904;28;20296;-44
2022/02/25 11:53:19;;;;;;;6.27;1.90;;;5.60;99.90;;;;;;5103196;28;20192;-44
2022/02/25 11:55:46;;;;;;;3.23;1.77;;;5.60;99.90;;;;;;5090379;28;20205;-44
2022/02/25 11:58:40;;;;;;;6.17;2.33;;;5.60;99.90;;;;;;5101414;28;20193;-45
2022/02/25 12:01:08;;;;;;;6.30;1.80;;;5.60;99.90;;;;;;5099420;28;20220;-46
2022/02/25 12:03:36;;;;;;;6.63;1.60;;;5.60;99.90;;;;;;5103195;28;20216;-44
2022/02/25 12:06:03;;;;;;;7.60;1.97;;;5.50;99.90;;;;;;5103719;28;20201;-45
2022/02/25 12:08:33;;;;;;;5.03;1.47;;;5.50;99.90;;;;;;5102463;28;20304;-44
2022/02/25 12:11:02;;;;;;;6.57;1.57;;;5.40;99.90;;;;;;5089710;28;20239;-44
2022/02/25 12:13:30;;;;;;;6.90;2.13;;;5.30;99.90;;;;;;5101632;28;20516;-43
2022/02/25 12:15:57;;;;;;;8.50;1.63;;;5.30;99.90;;;;;;5104482;28;20681;-43
2022/02/25 12:18:38;;;;;;;6.70;1.23;;;5.20;99.90;;;;;;5100941;28;20185;-44
2022/02/25 12:21:10;;;;;;;3.00;1.27;;;5.20;99.90;;;;;;5103341;28;20205;-43
2022/02/25 12:23:46;;;;;;;2.10;0.93;;;5.10;99.90;;;;;;5103363;28;20197;-46
2022/02/25 12:26:14;;;;;;;7.17;1.53;;;5.10;99.90;;;;;;5080572;28;20208;-42
2022/02/25 12:28:50;;;;;;;2.73;0.70;;;5.00;99.90;;;;;;5103739;28;20300;-43
2022/02/25 12:31:20;;;;;;;3.67;0.77;;;5.00;99.90;;;;;;5100544;28;20301;-45
2022/02/25 12:34:03;;;;;;;5.23;1.17;;;5.00;99.90;;;;;;5104275;28;20402;-43
2022/02/25 12:36:44;;;;;;;6.30;0.93;;;5.00;99.90;;;;;;5101200;27;20192;-43
2022/02/25 12:39:16;;;;;;;3.83;1.17;;;5.10;99.90;;;;;;5101859;28;20208;-42
2022/02/25 12:41:45;;;;;;;6.47;0.87;;;5.10;99.90;;;;;;5083324;28;20204;-43
2022/02/25 12:44:13;;;;;;;2.47;0.70;;;5.20;99.90;;;;;;5094911;28;20197;-45
2022/02/25 12:46:43;;;;;;;0.90;0.60;;;5.30;99.90;;;;;;5103328;28;20201;-44
2022/02/25 12:49:12;;;;;;;4.03;0.97;;;5.30;99.90;;;;;;5101455;28;20205;-44
2022/02/25 12:51:40;;;;;;;2.47;0.60;;;5.30;99.90;;;;;;5103426;28;20233;-47
2022/02/25 12:54:09;;;;;;;5.30;1.23;;;5.40;99.90;;;;;;5101998;28;20205;-47
2022/02/25 12:56:39;;;;;;;2.30;0.83;;;5.30;99.90;;;;;;5086339;28;20412;-45
2022/02/25 12:59:07;;;;;;;4.43;0.70;;;5.40;99.90;;;;;;5095638;28;20558;-48
2022/02/25 13:01:36;;;;;;;3.83;0.80;;;5.40;99.90;;;;;;5101508;28;20802;-42
2022/02/25 13:04:06;;;;;;;2.90;0.50;;;5.50;99.90;;;;;;5102908;28;20719;-42
2022/02/25 13:06:36;;;;;;;3.60;0.90;;;5.60;99.90;;;;;;5101580;28;20307;-43